Etusivu
METAR-TAF:

METAR-TAF

Lentoasemat :

Marsa Matruh, Egypti

Leveyspiiri: 31-20N, Pituuspiiri: 027-13E, korkeus merenpinnasta: 25 m

Tämänhetkinen sää

Tämä raportti tehtiin 1 tunti ja 34 minuuttia sitten, kello 16.00 UTC
Tuuli 10 kn lännestä/luoteesta
Lämpötila 23°C
Kosteus 78%
Ilmanpaine 1016 hPa
Näkyvyys 10 km tai enemmän
Hajanaisia pilviä 2000 ft:n korkeudessa

METAR: HEMM 241600Z 29010KT 9999 SCT020 23/19 Q1016 NOSIG

Aika: 19:34 (17:34 UTC)

Sääennuste

Tämä raportti tehtiin 6 tuntia ja 34 minuuttia sitten, kello 11.00 UTC
Ennuste voimassa 24. päivästä klo 12 UTC - 25. päivään klo 18 UTC
Tuuli 12 kn lännestä/luoteesta
Näkyvyys 10 km tai enemmän
ei pilviä alle 1500 m:ssä eikä cumulonimbus-pilviä

TAF: HEMM 241100Z 2412/2518 30012KT CAVOK

Säähavainnot ja -ennusteet yli 4000 lentoasemalta (METAR- ja TAF-raportit).

Käytössä olevat sääasemat on merkitty karttaan keltaisilla ja punaisilla pisteillä.

Aseta hiiri pisteen päälle nähdäksesi sääaseman nimen.

Klikkaa sitten nähdäksesi säähavainnot ja -ennusteet.

Kartan vaihtaminen: klikkaa mustalla rastilla varustettuja vihreitä pisteitä, niin voit zoomata sisään; viivalla varustettua vihreää pistettä, niin voit zoomata ulos tai vihreitä nuolia, niin pääset viereisille kartoille.


METAR-TAF: